createdAt,value
2022-09-30T00:00:09.901Z,14.85
2022-09-30T00:05:33.191Z,15.30
2022-09-30T00:10:36.444Z,15.15
2022-09-30T00:15:41.310Z,16.35
2022-09-30T00:20:44.567Z,15.13
2022-09-30T00:25:48.195Z,16.40
2022-09-30T00:30:52.869Z,16.25
2022-09-30T00:35:56.240Z,17.83
2022-09-30T00:40:59.843Z,16.42
2022-09-30T00:46:04.750Z,16.95
2022-09-30T00:51:09.085Z,16.27
2022-09-30T00:56:14.910Z,16.92
2022-09-30T01:01:20.253Z,16.23
2022-09-30T01:06:25.079Z,14.93
2022-09-30T01:11:29.052Z,15.25
2022-09-30T01:16:49.113Z,15.10
2022-09-30T01:22:19.072Z,15.77
2022-09-30T01:27:43.364Z,15.55
2022-09-30T01:33:19.752Z,15.60
2022-09-30T01:38:29.491Z,16.48
2022-09-30T01:43:45.473Z,15.30
2022-09-30T01:48:59.643Z,15.25
2022-09-30T01:54:07.386Z,15.73
2022-09-30T01:59:15.881Z,16.58
2022-09-30T02:04:26.366Z,15.48
2022-09-30T02:09:33.735Z,16.73
2022-09-30T02:14:42.456Z,15.43
2022-09-30T02:19:51.849Z,15.00
2022-09-30T02:25:00.308Z,15.40
2022-09-30T02:30:04.959Z,16.17
2022-09-30T02:35:12.843Z,15.45
2022-09-30T02:40:21.355Z,15.88
2022-09-30T02:45:26.109Z,16.02
2022-09-30T02:50:35.190Z,16.08
2022-09-30T02:55:49.959Z,16.20
2022-09-30T03:00:55.239Z,14.88
2022-09-30T03:06:00.274Z,14.88
2022-09-30T03:11:04.836Z,13.95
2022-09-30T03:16:21.874Z,13.98
2022-09-30T03:21:39.312Z,13.68
2022-09-30T03:26:53.510Z,14.43
2022-09-30T03:32:09.636Z,14.45
2022-09-30T03:37:23.139Z,14.07
2022-09-30T03:42:30.727Z,15.00
2022-09-30T03:47:39.190Z,14.88
2022-09-30T03:52:44.346Z,14.02
2022-09-30T03:57:49.047Z,14.38
2022-09-30T04:02:57.075Z,14.13
2022-09-30T04:08:02.752Z,16.00
2022-09-30T04:13:06.041Z,14.55
2022-09-30T04:18:09.454Z,14.50
2022-09-30T04:23:14.088Z,14.90
2022-09-30T04:28:17.669Z,14.95
2022-09-30T04:33:21.044Z,14.88
2022-09-30T04:38:26.377Z,14.93
2022-09-30T04:43:30.029Z,14.60
2022-09-30T04:48:33.338Z,13.85
2022-09-30T04:53:37.979Z,12.73
2022-09-30T04:58:41.483Z,15.15
2022-09-30T05:03:45.971Z,15.32
2022-09-30T05:08:50.671Z,14.43
2022-09-30T05:13:54.000Z,13.82
2022-09-30T05:18:57.313Z,14.13
2022-09-30T05:24:02.670Z,14.70
2022-09-30T05:29:06.241Z,14.07
2022-09-30T05:34:09.981Z,14.77
2022-09-30T05:39:14.940Z,16.13
2022-09-30T05:44:19.290Z,16.35
2022-09-30T05:49:22.739Z,14.85
2022-09-30T05:54:27.801Z,13.90
2022-09-30T05:59:31.107Z,15.57
2022-09-30T06:04:34.779Z,15.75
2022-09-30T06:09:39.676Z,16.40
2022-09-30T06:14:42.996Z,16.20
2022-09-30T06:19:46.311Z,16.23
2022-09-30T06:24:55.004Z,15.88
2022-09-30T06:29:58.667Z,16.45
2022-09-30T06:35:03.781Z,15.55
2022-09-30T06:40:09.921Z,14.75
2022-09-30T06:45:25.670Z,17.60
2022-09-30T06:50:34.491Z,15.45
2022-09-30T06:55:40.704Z,15.50
2022-09-30T07:00:44.047Z,18.73
2022-09-30T07:05:47.497Z,19.02
2022-09-30T07:10:52.828Z,20.00
2022-09-30T07:15:57.113Z,19.10
2022-09-30T07:21:00.444Z,20.80
2022-09-30T07:26:07.876Z,18.98
2022-09-30T07:31:31.986Z,18.85
2022-09-30T07:36:38.089Z,17.90
2022-09-30T07:41:45.195Z,17.77
2022-09-30T07:46:48.678Z,19.52
2022-09-30T07:51:53.957Z,17.08
2022-09-30T07:57:15.160Z,18.23
2022-09-30T08:02:20.177Z,17.50
2022-09-30T08:07:24.066Z,17.63
2022-09-30T08:12:28.792Z,17.42
2022-09-30T08:17:32.020Z,16.90
2022-09-30T08:22:35.414Z,18.33
2022-09-30T08:27:40.310Z,17.92
2022-09-30T08:32:43.818Z,18.70
2022-09-30T08:37:47.155Z,19.42
2022-09-30T08:43:14.787Z,17.83
2022-09-30T08:48:29.893Z,18.58
2022-09-30T08:53:37.779Z,18.60
2022-09-30T08:58:46.388Z,19.85
2022-09-30T09:03:49.833Z,19.45
2022-09-30T09:09:26.075Z,19.13
2022-09-30T09:14:46.908Z,19.45
2022-09-30T09:19:57.354Z,19.83
2022-09-30T09:25:03.586Z,19.05
2022-09-30T09:30:11.794Z,19.65
2022-09-30T09:35:17.532Z,19.10
2022-09-30T09:40:34.318Z,19.70
2022-09-30T09:45:49.281Z,18.73
2022-09-30T09:51:02.206Z,18.40
2022-09-30T09:56:18.165Z,17.20
2022-09-30T10:01:33.157Z,18.00
2022-09-30T10:06:48.252Z,15.60
2022-09-30T10:11:51.819Z,15.85
2022-09-30T10:17:00.130Z,15.23
2022-09-30T10:22:19.984Z,14.00
2022-09-30T10:27:29.306Z,13.32
2022-09-30T10:32:34.426Z,15.07
2022-09-30T10:37:38.620Z,14.43
2022-09-30T10:42:47.174Z,11.75
2022-09-30T10:47:55.227Z,9.95
2022-09-30T10:53:00.420Z,9.50
2022-09-30T10:58:24.615Z,9.32
2022-09-30T11:03:38.802Z,8.60
2022-09-30T11:08:47.726Z,6.75
2022-09-30T11:13:57.470Z,6.65
2022-09-30T11:19:09.602Z,6.03
2022-09-30T11:24:22.709Z,6.60
2022-09-30T11:29:44.441Z,5.93
2022-09-30T11:35:02.535Z,6.22
2022-09-30T11:40:30.572Z,5.57
2022-09-30T11:45:42.416Z,5.90
2022-09-30T11:51:00.878Z,5.82
2022-09-30T11:56:15.622Z,5.63
2022-09-30T12:01:26.492Z,5.40
2022-09-30T12:06:37.334Z,5.47
2022-09-30T12:11:47.825Z,4.53
2022-09-30T12:16:51.816Z,5.43
2022-09-30T12:22:02.761Z,5.80
2022-09-30T12:27:15.078Z,5.18
2022-09-30T12:32:47.849Z,5.67
2022-09-30T12:38:10.277Z,5.18
2022-09-30T12:43:31.274Z,5.13
2022-09-30T12:48:39.496Z,5.80
2022-09-30T12:53:44.599Z,5.35
2022-09-30T12:58:51.251Z,5.07
2022-09-30T13:04:16.031Z,6.05
2022-09-30T13:09:23.310Z,5.60
2022-09-30T13:14:34.955Z,5.22
2022-09-30T13:19:41.503Z,6.38
2022-09-30T13:25:12.508Z,6.22
2022-09-30T13:30:34.630Z,5.28
2022-09-30T13:35:50.124Z,5.13
2022-09-30T13:41:02.297Z,4.50
2022-09-30T13:46:12.197Z,4.50
2022-09-30T13:51:19.671Z,5.63
2022-09-30T13:56:27.808Z,4.25
2022-09-30T14:01:54.625Z,4.15
2022-09-30T14:07:10.528Z,4.95
2022-09-30T14:12:30.940Z,4.22
2022-09-30T14:17:47.877Z,3.67
2022-09-30T14:22:51.453Z,3.65
2022-09-30T14:28:09.994Z,3.60
2022-09-30T14:33:23.701Z,4.18
2022-09-30T14:38:30.236Z,4.32
2022-09-30T14:43:42.538Z,3.85
2022-09-30T14:53:56.069Z,3.95
2022-09-30T14:59:01.468Z,4.03
2022-09-30T15:04:09.113Z,3.45
2022-09-30T15:09:18.851Z,4.03
2022-09-30T15:14:24.871Z,4.03
2022-09-30T15:19:30.109Z,4.35
2022-09-30T15:24:34.505Z,3.72
2022-09-30T15:29:39.438Z,3.15
2022-09-30T15:34:46.116Z,4.32
2022-09-30T15:40:08.111Z,3.53
2022-09-30T15:45:35.735Z,3.85
2022-09-30T15:50:42.131Z,3.67
2022-09-30T15:55:48.289Z,3.90
2022-09-30T16:00:54.259Z,3.83
2022-09-30T16:06:07.964Z,5.55
2022-09-30T16:11:19.117Z,7.10
2022-09-30T16:16:27.442Z,4.50
2022-09-30T16:21:50.851Z,5.15
2022-09-30T16:26:56.218Z,7.18
2022-09-30T16:32:04.690Z,7.63
2022-09-30T16:37:13.818Z,7.47
2022-09-30T16:42:18.653Z,9.40
2022-09-30T16:47:23.635Z,9.80
2022-09-30T16:52:27.151Z,6.80
2022-09-30T16:57:30.728Z,7.15
2022-09-30T17:02:35.462Z,8.15
2022-09-30T17:07:38.969Z,8.88
2022-09-30T17:12:42.525Z,9.30
2022-09-30T17:17:47.985Z,9.40
2022-09-30T17:22:51.759Z,11.70
2022-09-30T17:27:59.869Z,13.13
2022-09-30T17:33:04.827Z,13.63
2022-09-30T17:38:08.798Z,14.48
2022-09-30T17:43:13.161Z,13.98
2022-09-30T17:48:19.542Z,15.68
2022-09-30T17:53:24.161Z,18.40
2022-09-30T17:58:28.574Z,20.70
2022-09-30T18:03:33.467Z,23.92
2022-09-30T18:08:36.872Z,18.10
2022-09-30T18:13:40.561Z,17.45
2022-09-30T18:18:45.292Z,17.05
2022-09-30T18:23:51.278Z,15.95
2022-09-30T18:28:55.886Z,12.82
2022-09-30T18:34:10.777Z,13.52
2022-09-30T18:39:16.564Z,17.95
2022-09-30T18:44:20.577Z,18.83
2022-09-30T18:49:26.866Z,15.93
2022-09-30T18:54:31.541Z,18.23
2022-09-30T18:59:35.093Z,16.27
2022-09-30T19:04:43.264Z,15.52
2022-09-30T19:09:50.515Z,14.88
2022-09-30T19:14:55.561Z,15.98
2022-09-30T19:20:01.553Z,15.52
2022-09-30T19:25:11.966Z,16.88
2022-09-30T19:30:17.320Z,15.50
2022-09-30T19:35:35.067Z,15.30
2022-09-30T19:40:44.142Z,15.60
2022-09-30T19:45:56.012Z,21.30
2022-09-30T19:51:03.445Z,20.08
2022-09-30T19:56:12.635Z,18.23
2022-09-30T20:01:18.327Z,17.40
2022-09-30T20:06:23.662Z,15.15
2022-09-30T20:11:29.928Z,16.70
2022-09-30T20:16:34.050Z,15.20
2022-09-30T20:21:41.782Z,16.17
2022-09-30T20:26:47.119Z,15.80
2022-09-30T20:31:51.712Z,17.50
2022-09-30T20:36:56.812Z,17.52
2022-09-30T20:42:00.199Z,17.80
2022-09-30T20:47:03.830Z,16.73
2022-09-30T20:52:08.783Z,18.55
2022-09-30T20:57:12.218Z,16.58
2022-09-30T21:02:16.101Z,14.85
2022-09-30T21:07:21.173Z,17.30
2022-09-30T21:12:24.502Z,16.67
2022-09-30T21:17:28.069Z,16.77
2022-09-30T21:22:32.797Z,16.67
2022-09-30T21:27:36.212Z,17.95
2022-09-30T21:32:43.214Z,17.45
2022-09-30T21:37:49.748Z,16.65
2022-09-30T21:42:53.119Z,19.23
2022-09-30T21:48:02.176Z,17.02
2022-09-30T21:53:06.909Z,16.98
2022-09-30T21:58:10.319Z,17.10
2022-09-30T22:03:13.979Z,17.58
2022-09-30T22:08:18.812Z,19.00
2022-09-30T22:13:22.489Z,18.45
2022-09-30T22:18:25.960Z,19.15
2022-09-30T22:23:30.930Z,20.70
2022-09-30T22:28:34.331Z,21.45
2022-09-30T22:33:54.963Z,18.92
2022-09-30T22:38:59.726Z,19.60
2022-09-30T22:44:03.345Z,20.27
2022-09-30T22:49:07.657Z,18.45
2022-09-30T22:54:12.589Z,22.35
2022-09-30T22:59:16.618Z,18.20
2022-09-30T23:04:20.513Z,17.63
2022-09-30T23:09:25.840Z,16.80
2022-09-30T23:14:29.479Z,16.33
2022-09-30T23:19:32.835Z,17.58
2022-09-30T23:24:37.774Z,18.35
2022-09-30T23:29:41.139Z,16.90
2022-09-30T23:34:44.513Z,16.88
2022-09-30T23:39:49.417Z,17.35
2022-09-30T23:44:52.794Z,17.95
2022-09-30T23:49:56.500Z,17.13
2022-09-30T23:55:01.397Z,16.45
